createdAt,value
2018-04-16T00:03:21.852Z,14.47
2018-04-16T00:08:12.727Z,15.57
2018-04-16T00:13:03.617Z,15.40
2018-04-16T00:17:55.255Z,15.50
2018-04-16T00:22:46.136Z,16.10
2018-04-16T00:27:37.034Z,15.90
2018-04-16T00:32:33.982Z,15.80
2018-04-16T00:37:31.179Z,15.97
2018-04-16T00:42:28.266Z,16.07
2018-04-16T00:47:25.385Z,16.03
2018-04-16T00:52:22.415Z,15.60
2018-04-16T00:57:19.579Z,16.43
2018-04-16T01:02:16.661Z,17.13
2018-04-16T01:07:14.792Z,17.47
2018-04-16T01:12:12.574Z,16.30
2018-04-16T01:17:09.631Z,17.17
2018-04-16T01:22:07.503Z,17.60
2018-04-16T01:27:04.470Z,18.33
2018-04-16T01:32:02.376Z,17.27
2018-04-16T01:36:59.475Z,17.70
2018-04-16T01:41:56.593Z,17.53
2018-04-16T01:46:53.620Z,18.27
2018-04-16T01:51:50.752Z,19.30
2018-04-16T01:56:47.880Z,17.93
2018-04-16T02:01:45.111Z,18.27
2018-04-16T02:06:42.218Z,19.87
2018-04-16T02:11:39.357Z,19.07
2018-04-16T02:16:36.380Z,18.73
2018-04-16T02:21:33.428Z,20.00
2018-04-16T02:26:37.625Z,20.13
2018-04-16T02:31:34.630Z,18.53
2018-04-16T02:36:31.628Z,19.57
2018-04-16T02:41:29.460Z,18.80
2018-04-16T02:46:26.631Z,18.90
2018-04-16T02:51:23.713Z,19.93
2018-04-16T02:56:20.937Z,19.47
2018-04-16T03:01:30.707Z,19.93
2018-04-16T03:06:28.488Z,18.80
2018-04-16T03:11:25.630Z,19.07
2018-04-16T03:16:22.824Z,17.33
2018-04-16T03:21:19.936Z,18.23
2018-04-16T03:31:35.576Z,20.77
2018-04-16T03:36:32.651Z,19.17
2018-04-16T03:41:29.697Z,17.73
2018-04-16T03:46:27.039Z,17.57
2018-04-16T03:51:34.804Z,18.00
2018-04-16T03:56:25.713Z,18.00
2018-04-16T04:01:16.642Z,18.30
2018-04-16T04:06:07.516Z,15.87
2018-04-16T04:10:59.164Z,17.67
2018-04-16T04:15:51.543Z,18.67
2018-04-16T04:20:42.455Z,18.00
2018-04-16T04:25:45.859Z,18.33
2018-04-16T04:30:38.609Z,17.00
2018-04-16T04:35:30.264Z,16.07
2018-04-16T04:40:21.155Z,18.47
2018-04-16T04:45:12.084Z,17.83
2018-04-16T04:50:02.976Z,19.73
2018-04-16T04:54:54.627Z,20.10
2018-04-16T04:59:45.542Z,18.20
2018-04-16T05:04:37.185Z,19.40
2018-04-16T05:09:28.093Z,18.47
2018-04-16T05:14:18.988Z,18.53
2018-04-16T05:19:10.623Z,19.27
2018-04-16T05:24:02.265Z,22.23
2018-04-16T05:28:53.900Z,20.93
2018-04-16T05:33:44.787Z,21.47
2018-04-16T05:38:35.680Z,21.37
2018-04-16T05:43:26.573Z,22.13
2018-04-16T05:48:17.467Z,20.67
2018-04-16T05:53:08.359Z,21.83
2018-04-16T05:57:59.265Z,20.50
2018-04-16T06:02:50.955Z,23.07
2018-04-16T06:07:41.852Z,23.53
2018-04-16T06:12:32.759Z,21.40
2018-04-16T06:17:23.648Z,25.47
2018-04-16T06:22:14.548Z,18.70
2018-04-16T06:27:05.448Z,21.57
2018-04-16T06:31:56.416Z,19.53
2018-04-16T06:36:47.312Z,18.30
2018-04-16T06:41:38.216Z,20.80
2018-04-16T06:46:29.858Z,18.37
2018-04-16T06:51:20.764Z,20.27
2018-04-16T06:56:11.728Z,18.60
2018-04-16T07:01:02.656Z,19.53
2018-04-16T07:05:53.568Z,19.40
2018-04-16T07:10:44.467Z,19.60
2018-04-16T07:15:36.192Z,17.93
2018-04-16T07:20:27.097Z,17.93
2018-04-16T07:25:18.000Z,18.77
2018-04-16T07:30:08.905Z,19.17
2018-04-16T07:34:59.805Z,18.13
2018-04-16T07:39:50.889Z,20.60
2018-04-16T07:44:41.791Z,19.33
2018-04-16T07:49:33.427Z,19.97
2018-04-16T07:54:25.082Z,18.60
2018-04-16T07:59:16.711Z,18.20
2018-04-16T08:04:07.615Z,20.10
2018-04-16T08:08:58.503Z,17.97
2018-04-16T08:13:49.407Z,18.00
2018-04-16T08:18:41.043Z,17.40
2018-04-16T08:23:31.950Z,18.10
2018-04-16T08:28:22.851Z,17.90
2018-04-16T08:33:13.767Z,18.43
2018-04-16T08:38:05.388Z,18.50
2018-04-16T08:42:56.286Z,17.47
2018-04-16T08:47:47.184Z,18.23
2018-04-16T08:52:38.098Z,18.90
2018-04-16T08:57:29.732Z,18.30
2018-04-16T09:02:21.371Z,18.10
2018-04-16T09:07:20.055Z,16.83
2018-04-16T09:12:10.951Z,17.27
2018-04-16T09:17:01.839Z,18.57
2018-04-16T09:21:53.459Z,17.33
2018-04-16T09:26:44.355Z,16.70
2018-04-16T09:31:35.260Z,18.33
2018-04-16T09:36:26.891Z,16.30
2018-04-16T09:41:18.515Z,16.27
2018-04-16T09:46:09.418Z,18.00
2018-04-16T09:51:00.326Z,17.27
2018-04-16T09:55:51.274Z,17.17
2018-04-16T10:00:48.348Z,16.50
2018-04-16T10:05:39.236Z,16.87
2018-04-16T10:10:30.182Z,15.80
2018-04-16T10:15:21.884Z,14.83
2018-04-16T10:20:12.793Z,16.83
2018-04-16T10:25:03.696Z,15.57
2018-04-16T10:29:55.332Z,15.30
2018-04-16T10:34:46.977Z,15.73
2018-04-16T10:39:38.611Z,16.13
2018-04-16T10:44:29.541Z,15.03
2018-04-16T10:49:20.435Z,14.40
2018-04-16T10:54:11.319Z,16.33
2018-04-16T10:59:02.233Z,16.23
2018-04-16T11:03:53.131Z,16.87
2018-04-16T11:08:44.024Z,15.83
2018-04-16T11:13:34.934Z,15.07
2018-04-16T11:18:26.571Z,15.10
2018-04-16T11:23:18.211Z,15.27
2018-04-16T11:28:09.122Z,14.97
2018-04-16T11:33:00.020Z,14.27
2018-04-16T11:37:50.940Z,13.73
2018-04-16T11:42:41.845Z,13.90
2018-04-16T11:47:32.732Z,14.13
2018-04-16T11:52:23.730Z,11.87
2018-04-16T11:57:14.619Z,11.47
2018-04-16T12:02:06.263Z,12.30
2018-04-16T12:06:57.967Z,14.60
2018-04-16T12:11:48.864Z,15.10
2018-04-16T12:16:40.556Z,17.07
2018-04-16T12:21:32.154Z,15.90
2018-04-16T12:26:23.062Z,18.60
2018-04-16T12:31:21.099Z,17.77
2018-04-16T12:36:11.992Z,16.63
2018-04-16T12:41:02.882Z,15.93
2018-04-16T12:45:53.779Z,15.50
2018-04-16T12:50:44.671Z,13.80
2018-04-16T12:55:35.643Z,16.80
2018-04-16T13:00:26.539Z,15.17
2018-04-16T13:05:17.431Z,18.07
2018-04-16T13:10:08.327Z,18.90
2018-04-16T13:14:59.226Z,22.10
2018-04-16T13:19:50.863Z,23.37
2018-04-16T13:24:41.764Z,23.90
2018-04-16T13:29:32.676Z,23.47
2018-04-16T13:34:23.578Z,25.10
2018-04-16T13:39:15.215Z,28.17
2018-04-16T13:44:06.919Z,27.40
2018-04-16T13:48:57.823Z,28.10
2018-04-16T13:53:48.711Z,29.50
2018-04-16T13:58:39.614Z,27.20
2018-04-16T14:03:30.515Z,27.10
2018-04-16T14:08:22.171Z,30.90
2018-04-16T14:13:13.076Z,29.23
2018-04-16T14:18:03.968Z,28.80
2018-04-16T14:22:54.860Z,27.50
2018-04-16T14:27:45.762Z,29.83
2018-04-16T14:32:36.669Z,30.03
2018-04-16T14:37:27.563Z,30.07
2018-04-16T14:42:19.412Z,32.80
2018-04-16T14:47:10.303Z,31.50
2018-04-16T14:52:01.195Z,32.23
2018-04-16T14:56:52.826Z,29.60
2018-04-16T15:01:44.459Z,32.20
2018-04-16T15:06:35.347Z,31.20
2018-04-16T15:11:26.239Z,31.00
2018-04-16T15:16:17.874Z,31.40
2018-04-16T15:21:08.773Z,31.00
2018-04-16T15:25:59.667Z,30.30
2018-04-16T15:30:51.307Z,30.40
2018-04-16T15:35:42.231Z,31.00
2018-04-16T15:40:33.123Z,29.33
2018-04-16T15:45:24.025Z,28.80
2018-04-16T15:50:14.925Z,29.83
2018-04-16T15:55:06.567Z,28.43
2018-04-16T15:59:57.467Z,30.00
2018-04-16T16:04:48.365Z,29.70
2018-04-16T16:09:40.015Z,28.80
2018-04-16T16:14:31.656Z,28.60
2018-04-16T16:19:22.547Z,29.60
2018-04-16T16:24:13.439Z,29.10
2018-04-16T16:29:04.344Z,28.83
2018-04-16T16:33:55.223Z,27.00
2018-04-16T16:38:46.855Z,28.20
2018-04-16T16:43:37.735Z,27.60
2018-04-16T16:48:28.627Z,26.33
2018-04-16T16:53:19.525Z,25.93
2018-04-16T16:58:10.437Z,25.63
2018-04-16T17:03:01.331Z,26.63
2018-04-16T17:07:52.974Z,26.93
2018-04-16T17:12:44.616Z,26.60
2018-04-16T17:17:36.243Z,24.80
2018-04-16T17:22:27.889Z,24.73
2018-04-16T17:27:18.783Z,25.27
2018-04-16T17:32:09.691Z,23.40
2018-04-16T17:37:00.580Z,24.07
2018-04-16T17:41:51.491Z,22.33
2018-04-16T17:46:42.402Z,22.37
2018-04-16T17:51:33.310Z,22.43
2018-04-16T17:56:24.199Z,24.23
2018-04-16T18:01:15.115Z,21.23
2018-04-16T18:06:06.012Z,21.00
2018-04-16T18:10:57.021Z,21.73
2018-04-16T18:15:48.843Z,20.60
2018-04-16T18:20:39.740Z,22.43
2018-04-16T18:25:30.659Z,21.23
2018-04-16T18:30:21.547Z,21.50
2018-04-16T18:35:12.455Z,22.87
2018-04-16T18:40:03.388Z,20.20
2018-04-16T18:44:54.330Z,20.80
2018-04-16T18:49:45.232Z,22.20
2018-04-16T18:54:36.123Z,20.73
2018-04-16T18:59:27.025Z,20.10
2018-04-16T19:04:17.991Z,23.03
2018-04-16T19:09:09.638Z,27.50
2018-04-16T19:14:00.531Z,24.97
2018-04-16T19:18:51.437Z,22.90
2018-04-16T19:23:42.500Z,23.40
2018-04-16T19:28:33.402Z,23.07
2018-04-16T19:33:30.393Z,24.83
2018-04-16T19:38:21.323Z,22.37
2018-04-16T19:43:12.219Z,22.07
2018-04-16T19:48:03.858Z,24.17
2018-04-16T19:52:54.762Z,22.37
2018-04-16T19:57:52.010Z,20.90
2018-04-16T20:02:49.875Z,19.53
2018-04-16T20:07:40.796Z,21.03
2018-04-16T20:12:31.709Z,21.23
2018-04-16T20:17:22.600Z,20.30
2018-04-16T20:22:13.499Z,20.83
2018-04-16T20:27:04.435Z,18.57
2018-04-16T20:31:55.327Z,19.87
2018-04-16T20:36:46.992Z,20.43
2018-04-16T20:41:37.879Z,20.20
2018-04-16T20:46:28.785Z,19.30
2018-04-16T20:51:19.683Z,19.33
2018-04-16T20:56:10.580Z,17.33
2018-04-16T21:01:01.467Z,18.20
2018-04-16T21:05:52.378Z,18.87
2018-04-16T21:10:43.297Z,18.30
2018-04-16T21:15:34.199Z,16.63
2018-04-16T21:20:25.835Z,18.13
2018-04-16T21:25:16.752Z,17.47
2018-04-16T21:30:07.647Z,17.60
2018-04-16T21:34:58.554Z,17.27
2018-04-16T21:39:50.195Z,18.00
2018-04-16T21:44:41.845Z,17.90
2018-04-16T21:49:32.741Z,17.70
2018-04-16T21:54:23.639Z,16.33
2018-04-16T21:59:15.289Z,17.67
2018-04-16T22:04:06.940Z,18.80
2018-04-16T22:08:58.589Z,20.50
2018-04-16T22:13:50.223Z,16.43
2018-04-16T22:18:41.131Z,18.13
2018-04-16T22:23:32.036Z,19.20
2018-04-16T22:28:22.940Z,17.10
2018-04-16T22:33:13.836Z,19.20
2018-04-16T22:38:04.743Z,18.40
2018-04-16T22:42:55.643Z,17.67
2018-04-16T22:47:46.543Z,18.67
2018-04-16T22:52:37.440Z,19.70
2018-04-16T22:57:28.331Z,16.40
2018-04-16T23:02:19.267Z,17.77
2018-04-16T23:07:10.164Z,19.20
2018-04-16T23:12:01.067Z,19.93
2018-04-16T23:16:51.977Z,19.50
2018-04-16T23:21:42.887Z,18.70
2018-04-16T23:26:33.797Z,18.40
2018-04-16T23:31:24.711Z,18.03
2018-04-16T23:36:22.756Z,19.13
2018-04-16T23:41:14.414Z,17.57
2018-04-16T23:46:05.315Z,18.90
2018-04-16T23:50:56.970Z,18.50
2018-04-16T23:55:47.881Z,17.30
